Time;durP1;ratioP1;P1;durP2;ratioP2;P2;SDS_P1;SDS_P2;PMS_P1;PMS_P2;Temp;Humidity;BMP_temperature;BMP_pressure;BME280_temperature;BME280_humidity;BME280_pressure;Samples;Min_cycle;Max_cycle;Signal;HPM_P1;HPM_P2
2022/11/14 00:00:37;;;;;;;;;38.67;32.33;;;;;;;;5049186;28;45764;-81
2022/11/14 00:03:06;;;;;;;;;35.33;26.00;;;;;;;;5021086;28;45463;-81
2022/11/14 00:05:32;;;;;;;;;39.00;31.00;;;;;;;;5050963;28;45378;-82
2022/11/14 00:07:57;;;;;;;;;39.33;33.67;;;;;;;;5034837;28;45422;-81
2022/11/14 00:10:24;;;;;;;;;34.00;26.67;;;;;;;;5029021;28;45661;-79
2022/11/14 00:12:52;;;;;;;;;35.67;30.00;;;;;;;;5020731;28;45616;-81
2022/11/14 00:15:20;;;;;;;;;42.33;32.33;;;;;;;;5020261;28;45454;-79
2022/11/14 00:17:46;;;;;;;;;30.33;26.67;;;;;;;;5042842;28;45927;-80
2022/11/14 00:20:11;;;;;;;;;38.00;34.00;;;;;;;;5017574;28;45912;-81
2022/11/14 00:22:38;;;;;;;;;35.67;29.00;;;;;;;;5049848;28;46616;-82
2022/11/14 00:25:04;;;;;;;;;37.00;32.33;;;;;;;;5022710;28;45522;-80
2022/11/14 00:27:29;;;;;;;;;36.00;26.67;;;;;;;;5024795;28;45683;-79
2022/11/14 00:29:54;;;;;;;;;41.67;33.67;;;;;;;;5024430;28;45849;-80
2022/11/14 00:32:21;;;;;;;;;32.00;24.00;;;;;;;;5045835;28;45829;-81
2022/11/14 00:34:46;;;;;;;;;36.67;32.00;;;;;;;;5036840;28;45825;-79
2022/11/14 00:37:12;;;;;;;;;31.00;29.00;;;;;;;;5028587;28;45630;-79
2022/11/14 00:39:37;;;;;;;;;42.00;32.00;;;;;;;;5028326;28;45819;-80
2022/11/14 00:42:02;;;;;;;;;38.67;32.67;;;;;;;;5044544;28;46422;-81
2022/11/14 00:44:27;;;;;;;;;42.00;33.00;;;;;;;;5043967;28;45460;-81
2022/11/14 00:46:53;;;;;;;;;33.67;29.33;;;;;;;;5053994;28;44749;-82
2022/11/14 00:49:18;;;;;;;;;38.00;29.67;;;;;;;;5049770;28;45928;-82
2022/11/14 00:51:43;;;;;;;;;37.67;34.33;;;;;;;;5036582;28;46284;-80
2022/11/14 00:54:09;;;;;;;;;31.00;26.67;;;;;;;;5045748;28;45820;-83
2022/11/14 00:56:36;;;;;;;;;32.00;30.67;;;;;;;;5053398;28;45642;-83
2022/11/14 00:59:01;;;;;;;;;33.67;26.00;;;;;;;;5025187;28;46203;-82
2022/11/14 01:01:27;;;;;;;;;41.00;31.67;;;;;;;;5056955;28;46667;-82
2022/11/14 01:03:52;;;;;;;;;34.00;30.00;;;;;;;;5033652;28;45783;-83
2022/11/14 01:06:18;;;;;;;;;42.67;32.00;;;;;;;;5038393;28;45324;-83
2022/11/14 01:08:44;;;;;;;;;33.67;29.67;;;;;;;;5026614;28;45439;-85
2022/11/14 01:11:13;;;;;;;;;36.33;28.33;;;;;;;;5037759;28;45638;-81
2022/11/14 01:13:38;;;;;;;;;38.00;31.67;;;;;;;;5033636;28;45700;-80
2022/11/14 01:16:03;;;;;;;;;32.00;28.33;;;;;;;;5029693;28;45768;-80
2022/11/14 01:18:29;;;;;;;;;26.33;23.67;;;;;;;;5040456;28;45522;-81
2022/11/14 01:20:54;;;;;;;;;36.00;28.33;;;;;;;;5025160;28;48075;-79
2022/11/14 01:23:20;;;;;;;;;34.33;29.33;;;;;;;;5032360;28;45843;-80
2022/11/14 01:25:45;;;;;;;;;43.33;34.00;;;;;;;;5062894;28;46031;-81
2022/11/14 01:28:12;;;;;;;;;37.67;31.33;;;;;;;;5056349;28;45450;-78
2022/11/14 01:30:37;;;;;;;;;28.33;22.33;;;;;;;;5059063;28;45323;-80
2022/11/14 01:33:03;;;;;;;;;39.00;33.67;;;;;;;;5043615;28;45768;-79
2022/11/14 01:35:28;;;;;;;;;42.33;35.33;;;;;;;;5059768;28;45432;-80
2022/11/14 01:37:53;;;;;;;;;37.33;31.33;;;;;;;;5058876;28;45692;-78
2022/11/14 01:40:19;;;;;;;;;35.00;32.67;;;;;;;;5049147;28;45480;-80
2022/11/14 01:43:03;;;;;;;;;38.33;31.67;;;;;;;;5062007;28;45774;-81
2022/11/14 01:45:41;;;;;;;;;42.67;34.33;;;;;;;;5039096;28;45947;-83
2022/11/14 01:48:16;;;;;;;;;39.33;31.33;;;;;;;;5033276;28;46073;-81
2022/11/14 01:50:42;;;;;;;;;44.00;32.00;;;;;;;;5029768;28;45775;-78
2022/11/14 01:53:07;;;;;;;;;29.67;25.33;;;;;;;;5051067;28;45813;-81
2022/11/14 01:55:32;;;;;;;;;32.00;31.33;;;;;;;;5048918;28;45695;-81
2022/11/14 01:57:58;;;;;;;;;31.33;30.33;;;;;;;;5031405;28;46752;-81
2022/11/14 02:00:23;;;;;;;;;32.00;30.33;;;;;;;;5049714;28;45158;-78
2022/11/14 02:02:49;;;;;;;;;32.00;24.67;;;;;;;;5042175;28;45782;-83
2022/11/14 02:05:16;;;;;;;;;29.00;27.67;;;;;;;;5045898;28;45450;-81
2022/11/14 02:07:41;;;;;;;;;34.00;26.33;;;;;;;;5061750;28;45417;-82
2022/11/14 02:10:08;;;;;;;;;34.33;26.33;;;;;;;;5036017;28;45503;-83
2022/11/14 02:12:34;;;;;;;;;34.67;30.33;;;;;;;;5048632;28;45825;-82
2022/11/14 02:14:59;;;;;;;;;34.67;28.00;;;;;;;;5048232;28;45510;-82
2022/11/14 02:17:25;;;;;;;;;33.00;28.67;;;;;;;;5063755;28;45467;-81
2022/11/14 02:19:56;;;;;;;;;33.67;31.00;;;;;;;;5056341;28;45703;-81
2022/11/14 02:22:21;;;;;;;;;34.00;26.33;;;;;;;;5051060;28;45847;-80
2022/11/14 02:24:47;;;;;;;;;47.33;33.33;;;;;;;;5053643;28;45372;-81
2022/11/14 02:27:13;;;;;;;;;42.33;34.00;;;;;;;;5041052;28;45923;-82
2022/11/14 02:29:38;;;;;;;;;40.67;33.00;;;;;;;;5055667;28;45559;-82
2022/11/14 02:32:04;;;;;;;;;38.00;31.33;;;;;;;;5053362;28;45306;-81
2022/11/14 02:34:30;;;;;;;;;37.67;31.67;;;;;;;;5033805;28;45928;-80
2022/11/14 02:36:56;;;;;;;;;36.67;31.00;;;;;;;;5060627;28;45752;-82
2022/11/14 02:39:22;;;;;;;;;45.00;32.00;;;;;;;;5025698;28;47647;-80
2022/11/14 02:41:48;;;;;;;;;43.33;35.67;;;;;;;;5034115;28;45824;-81
2022/11/14 02:44:13;;;;;;;;;44.33;35.67;;;;;;;;5046199;28;45350;-80
2022/11/14 02:46:38;;;;;;;;;35.00;31.00;;;;;;;;5064919;28;45654;-82
2022/11/14 02:49:04;;;;;;;;;36.00;31.33;;;;;;;;5048873;28;46974;-82
2022/11/14 02:51:32;;;;;;;;;39.67;33.67;;;;;;;;5027594;28;45877;-81
2022/11/14 02:53:57;;;;;;;;;42.67;35.00;;;;;;;;5038768;28;45417;-80
2022/11/14 02:56:23;;;;;;;;;39.00;33.00;;;;;;;;5037116;28;45987;-81
2022/11/14 02:58:49;;;;;;;;;36.33;31.33;;;;;;;;5038838;28;46844;-82
2022/11/14 03:01:15;;;;;;;;;36.67;33.33;;;;;;;;5050770;28;45656;-81
2022/11/14 03:03:40;;;;;;;;;42.33;33.00;;;;;;;;5043817;28;45692;-84
2022/11/14 03:06:05;;;;;;;;;33.33;31.00;;;;;;;;5045641;28;45808;-80
2022/11/14 03:08:31;;;;;;;;;41.33;33.00;;;;;;;;5057408;28;45740;-81
2022/11/14 03:11:02;;;;;;;;;37.00;31.33;;;;;;;;5040121;28;45952;-79
2022/11/14 03:13:30;;;;;;;;;28.00;26.00;;;;;;;;5058331;28;44823;-80
2022/11/14 03:15:55;;;;;;;;;44.67;32.00;;;;;;;;5056713;28;45340;-82
2022/11/14 03:18:21;;;;;;;;;44.00;36.00;;;;;;;;5037107;28;45446;-80
2022/11/14 03:20:46;;;;;;;;;39.33;32.33;;;;;;;;5055885;28;45982;-82
2022/11/14 03:23:12;;;;;;;;;38.00;34.33;;;;;;;;5057909;28;45456;-81
2022/11/14 03:25:37;;;;;;;;;34.00;28.33;;;;;;;;5037925;28;46046;-82
2022/11/14 03:28:04;;;;;;;;;35.33;31.00;;;;;;;;5034680;28;47350;-81
2022/11/14 03:30:30;;;;;;;;;33.33;30.00;;;;;;;;5034798;28;45837;-81
2022/11/14 03:32:55;;;;;;;;;33.33;30.00;;;;;;;;5049383;28;45647;-79
2022/11/14 03:35:21;;;;;;;;;39.00;31.00;;;;;;;;5054981;28;45738;-81
2022/11/14 03:37:46;;;;;;;;;35.33;29.67;;;;;;;;5033379;28;47098;-80
2022/11/14 03:40:14;;;;;;;;;31.00;26.00;;;;;;;;5051831;28;45415;-80
2022/11/14 03:42:40;;;;;;;;;42.33;32.33;;;;;;;;5037239;28;45657;-80
2022/11/14 03:45:05;;;;;;;;;35.00;29.67;;;;;;;;5053622;28;45674;-77
2022/11/14 03:47:32;;;;;;;;;36.33;24.00;;;;;;;;5048007;28;46782;-81
2022/11/14 03:49:57;;;;;;;;;33.33;28.33;;;;;;;;5039047;28;45915;-80
2022/11/14 03:52:24;;;;;;;;;39.00;31.67;;;;;;;;5052528;28;45521;-80
2022/11/14 03:54:50;;;;;;;;;39.00;32.33;;;;;;;;5042098;28;45921;-81
2022/11/14 03:57:15;;;;;;;;;36.00;30.33;;;;;;;;5027961;28;45963;-79
2022/11/14 03:59:40;;;;;;;;;41.67;31.00;;;;;;;;5039234;28;45998;-79
2022/11/14 04:02:06;;;;;;;;;27.67;22.67;;;;;;;;5051712;28;45573;-83
2022/11/14 04:04:31;;;;;;;;;34.67;29.67;;;;;;;;5040816;28;45872;-81
2022/11/14 04:06:56;;;;;;;;;36.00;26.33;;;;;;;;5044766;28;46274;-81
2022/11/14 04:09:21;;;;;;;;;39.33;29.67;;;;;;;;5038859;28;45396;-81
2022/11/14 04:11:47;;;;;;;;;33.33;28.67;;;;;;;;5040171;28;45383;-82
2022/11/14 04:14:12;;;;;;;;;36.50;31.00;;;;;;;;5063617;28;45355;-81
2022/11/14 04:16:37;;;;;;;;;29.00;25.67;;;;;;;;5044173;28;46944;-81
2022/11/14 04:19:03;;;;;;;;;35.00;27.33;;;;;;;;5035995;28;45728;-81
2022/11/14 04:21:28;;;;;;;;;38.00;29.00;;;;;;;;5053222;28;45627;-81
2022/11/14 04:23:53;;;;;;;;;27.00;25.67;;;;;;;;5047388;28;47160;-81
2022/11/14 04:26:24;;;;;;;;;32.67;29.67;;;;;;;;5060369;28;46606;-79
2022/11/14 04:28:49;;;;;;;;;26.00;21.67;;;;;;;;5019143;28;45840;-81
2022/11/14 04:31:15;;;;;;;;;35.33;29.67;;;;;;;;5034918;28;45512;-82
2022/11/14 04:33:40;;;;;;;;;33.67;24.67;;;;;;;;5027774;28;46150;-80
2022/11/14 04:36:05;;;;;;;;;25.33;24.33;;;;;;;;5029462;28;47067;-80
2022/11/14 04:38:31;;;;;;;;;29.00;26.67;;;;;;;;5065976;28;45784;-81
2022/11/14 04:40:56;;;;;;;;;33.67;24.67;;;;;;;;5035611;28;45774;-81
2022/11/14 04:43:21;;;;;;;;;40.33;30.67;;;;;;;;5049373;28;45806;-79
2022/11/14 04:45:47;;;;;;;;;37.00;27.33;;;;;;;;5025590;28;47335;-80
2022/11/14 04:48:13;;;;;;;;;26.33;22.00;;;;;;;;5029734;28;45412;-81
2022/11/14 04:50:41;;;;;;;;;31.67;23.67;;;;;;;;5049202;28;45472;-80
2022/11/14 04:53:08;;;;;;;;;18.67;17.00;;;;;;;;5060988;28;45949;-80
2022/11/14 04:55:34;;;;;;;;;25.67;23.67;;;;;;;;5058456;28;45529;-81
2022/11/14 04:58:01;;;;;;;;;28.00;24.00;;;;;;;;5040993;28;44849;-82
2022/11/14 05:00:38;;;;;;;;;33.00;26.33;;;;;;;;5037675;28;45510;-82
2022/11/14 05:03:03;;;;;;;;;29.67;23.67;;;;;;;;5025155;28;45593;-83
2022/11/14 05:05:29;;;;;;;;;26.67;22.00;;;;;;;;5037408;28;46818;-80
2022/11/14 05:07:54;;;;;;;;;24.33;19.33;;;;;;;;5044024;28;45752;-82
2022/11/14 05:10:21;;;;;;;;;29.33;23.00;;;;;;;;5035495;28;45429;-82
2022/11/14 05:12:46;;;;;;;;;28.33;26.00;;;;;;;;5040135;28;45865;-82
2022/11/14 05:15:11;;;;;;;;;25.33;21.00;;;;;;;;5046365;28;47971;-80
2022/11/14 05:17:36;;;;;;;;;21.33;20.33;;;;;;;;5057577;28;45751;-82
2022/11/14 05:20:05;;;;;;;;;24.00;21.67;;;;;;;;5036008;28;45961;-82
2022/11/14 05:22:30;;;;;;;;;26.67;22.33;;;;;;;;5037764;28;45683;-81
2022/11/14 05:24:58;;;;;;;;;28.33;24.33;;;;;;;;5038209;28;47165;-81
2022/11/14 05:27:24;;;;;;;;;31.67;29.33;;;;;;;;5037834;28;45864;-83
2022/11/14 05:29:49;;;;;;;;;37.33;30.67;;;;;;;;5036244;28;45300;-82
2022/11/14 05:32:15;;;;;;;;;39.33;31.33;;;;;;;;5040031;28;45906;-83
2022/11/14 05:34:40;;;;;;;;;41.67;33.00;;;;;;;;5049991;28;45888;-82
2022/11/14 05:37:08;;;;;;;;;36.67;28.33;;;;;;;;5040962;28;45347;-82
2022/11/14 05:39:33;;;;;;;;;53.25;40.75;;;;;;;;5055855;28;45350;-82
2022/11/14 05:41:59;;;;;;;;;42.00;33.00;;;;;;;;5058503;28;45448;-81
2022/11/14 05:44:24;;;;;;;;;33.00;28.33;;;;;;;;5027904;28;48000;-79
2022/11/14 05:46:49;;;;;;;;;33.33;28.33;;;;;;;;5028539;28;45843;-83
2022/11/14 05:49:18;;;;;;;;;34.33;30.00;;;;;;;;5039202;28;45814;-84
2022/11/14 05:51:47;;;;;;;;;32.67;28.00;;;;;;;;5050026;28;45832;-81
2022/11/14 05:54:12;;;;;;;;;35.67;30.33;;;;;;;;5051736;28;45647;-81
2022/11/14 05:56:44;;;;;;;;;31.33;29.00;;;;;;;;5058895;28;45735;-84
2022/11/14 05:59:10;;;;;;;;;32.67;28.00;;;;;;;;5047917;28;45545;-84
2022/11/14 06:01:43;;;;;;;;;34.00;30.00;;;;;;;;5044751;28;45385;-83
2022/11/14 06:04:08;;;;;;;;;35.33;28.00;;;;;;;;5039351;28;45663;-82
2022/11/14 06:06:36;;;;;;;;;31.67;28.33;;;;;;;;5063364;28;45467;-82
2022/11/14 06:09:02;;;;;;;;;33.00;26.00;;;;;;;;5039662;28;45456;-81
2022/11/14 06:11:27;;;;;;;;;36.67;31.00;;;;;;;;5039815;28;46986;-85
2022/11/14 06:13:53;;;;;;;;;32.00;29.00;;;;;;;;5038108;28;45471;-83
2022/11/14 06:16:19;;;;;;;;;33.00;28.67;;;;;;;;5037901;28;45731;-82
2022/11/14 06:18:47;;;;;;;;;33.67;29.67;;;;;;;;5041808;28;45429;-88
2022/11/14 06:21:17;;;;;;;;;37.33;31.67;;;;;;;;5067297;28;44854;-85
2022/11/14 06:23:43;;;;;;;;;34.00;26.67;;;;;;;;5071692;28;45556;-86
2022/11/14 06:26:30;;;;;;;;;33.00;29.00;;;;;;;;5038764;28;44886;-82
2022/11/14 06:28:59;;;;;;;;;34.00;31.00;;;;;;;;5053693;28;45481;-80
2022/11/14 06:31:25;;;;;;;;;25.00;23.67;;;;;;;;5031906;28;45912;-84
2022/11/14 06:33:50;;;;;;;;;37.33;29.33;;;;;;;;5030136;28;47139;-81
2022/11/14 06:36:19;;;;;;;;;30.33;27.67;;;;;;;;5027362;28;45797;-80
2022/11/14 06:38:50;;;;;;;;;33.67;28.33;;;;;;;;5046059;28;45929;-85
2022/11/14 06:41:19;;;;;;;;;35.00;30.67;;;;;;;;5029371;28;45816;-83
2022/11/14 06:44:03;;;;;;;;;;;;;;;;;;;;;
2022/11/14 06:46:29;;;;;;;;;33.33;28.33;;;;;;;;5067957;28;71999;-80
2022/11/14 06:48:55;;;;;;;;;33.00;29.00;;;;;;;;5030420;28;47238;-78
2022/11/14 06:51:20;;;;;;;;;32.00;25.33;;;;;;;;5048256;28;45470;-81
2022/11/14 06:53:45;;;;;;;;;31.67;29.00;;;;;;;;5055659;28;45319;-82
2022/11/14 06:56:13;;;;;;;;;33.67;30.00;;;;;;;;5043344;28;45758;-80
2022/11/14 06:58:48;;;;;;;;;36.00;26.00;;;;;;;;5051784;28;45396;-82
2022/11/14 07:01:17;;;;;;;;;32.33;31.00;;;;;;;;5031749;28;46666;-81
2022/11/14 07:03:43;;;;;;;;;34.00;27.67;;;;;;;;5042465;28;46415;-79
2022/11/14 07:06:12;;;;;;;;;32.00;28.00;;;;;;;;5050046;28;45561;-79
2022/11/14 07:08:37;;;;;;;;;26.67;25.00;;;;;;;;5036407;28;45397;-82
2022/11/14 07:11:06;;;;;;;;;21.33;17.33;;;;;;;;5036272;28;46925;-81
2022/11/14 07:13:32;;;;;;;;;30.00;28.00;;;;;;;;5045914;28;45588;-80
2022/11/14 07:15:57;;;;;;;;;37.00;29.00;;;;;;;;5038477;28;45713;-86
2022/11/14 07:18:22;;;;;;;;;25.67;23.00;;;;;;;;5055260;28;44803;-86
2022/11/14 07:20:48;;;;;;;;;34.00;26.00;;;;;;;;5053090;28;45430;-88
2022/11/14 07:23:14;;;;;;;;;30.33;23.00;;;;;;;;5057110;28;46846;-89
2022/11/14 07:25:41;;;;;;;;;37.00;29.33;;;;;;;;5072317;28;45498;-84
2022/11/14 07:28:06;;;;;;;;;30.33;27.33;;;;;;;;5048045;28;44825;-83
2022/11/14 07:30:32;;;;;;;;;27.00;24.67;;;;;;;;5035825;28;45771;-82
2022/11/14 07:32:57;;;;;;;;;33.33;25.00;;;;;;;;5039635;28;48224;-84
2022/11/14 07:35:23;;;;;;;;;31.00;24.00;;;;;;;;5044519;28;45397;-81
2022/11/14 07:38:10;;;;;;;;;28.33;26.67;;;;;;;;5032542;28;45362;-82
2022/11/14 07:40:35;;;;;;;;;25.33;22.33;;;;;;;;5056810;28;45280;-83
2022/11/14 07:43:01;;;;;;;;;28.67;24.67;;;;;;;;5034325;28;46571;-80
2022/11/14 07:45:29;;;;;;;;;32.33;25.00;;;;;;;;5034094;28;45390;-80
2022/11/14 07:47:56;;;;;;;;;19.67;17.33;;;;;;;;5027964;28;45603;-81
2022/11/14 07:50:25;;;;;;;;;20.00;19.00;;;;;;;;5032436;28;45536;-86
2022/11/14 07:52:53;;;;;;;;;23.00;18.67;;;;;;;;5041453;28;45755;-83
2022/11/14 07:55:28;;;;;;;;;29.00;25.33;;;;;;;;5025656;28;45553;-84
2022/11/14 07:57:54;;;;;;;;;25.33;22.00;;;;;;;;5043155;28;47614;-80
2022/11/14 08:00:19;;;;;;;;;28.33;25.00;;;;;;;;5032011;28;45807;-80
2022/11/14 08:02:45;;;;;;;;;25.33;23.00;;;;;;;;5040728;28;45828;-80
2022/11/14 08:05:11;;;;;;;;;28.00;24.00;;;;;;;;5038259;28;45795;-81
2022/11/14 08:07:36;;;;;;;;;24.67;23.00;;;;;;;;5037661;28;45717;-79
2022/11/14 08:10:02;;;;;;;;;21.00;16.67;;;;;;;;5025135;28;45762;-81
2022/11/14 08:12:28;;;;;;;;;28.67;26.67;;;;;;;;5048231;28;46321;-79
2022/11/14 08:14:53;;;;;;;;;23.00;21.67;;;;;;;;5033373;28;45703;-80
2022/11/14 08:17:22;;;;;;;;;24.33;21.67;;;;;;;;5031021;28;45563;-79
2022/11/14 08:19:47;;;;;;;;;22.00;21.00;;;;;;;;5032888;28;45792;-80
2022/11/14 08:22:12;;;;;;;;;26.33;20.67;;;;;;;;5032884;28;47638;-79
2022/11/14 08:24:37;;;;;;;;;27.33;20.67;;;;;;;;5033986;28;45526;-80
2022/11/14 08:27:03;;;;;;;;;26.33;22.67;;;;;;;;5035552;28;45899;-81
2022/11/14 08:29:28;;;;;;;;;23.00;22.33;;;;;;;;5036574;28;44922;-81
2022/11/14 08:31:53;;;;;;;;;27.33;19.67;;;;;;;;5026930;28;46765;-80
2022/11/14 08:34:21;;;;;;;;;18.67;17.00;;;;;;;;5016489;28;45763;-80
2022/11/14 08:36:46;;;;;;;;;25.67;20.00;;;;;;;;5015813;28;45775;-80
2022/11/14 08:39:12;;;;;;;;;28.00;21.33;;;;;;;;5026524;28;45991;-81
2022/11/14 08:41:38;;;;;;;;;20.67;18.33;;;;;;;;5035261;28;45767;-79
2022/11/14 08:44:03;;;;;;;;;23.33;21.00;;;;;;;;5027666;28;45733;-81
2022/11/14 08:46:28;;;;;;;;;24.33;22.33;;;;;;;;5052612;28;45947;-82
2022/11/14 08:48:54;;;;;;;;;23.33;21.00;;;;;;;;5048838;28;45671;-79
2022/11/14 08:51:19;;;;;;;;;25.33;25.00;;;;;;;;5040534;28;48254;-80
2022/11/14 08:53:45;;;;;;;;;24.00;20.67;;;;;;;;5044800;28;45395;-79
2022/11/14 08:56:10;;;;;;;;;24.33;21.00;;;;;;;;5058083;28;45372;-82
2022/11/14 08:58:38;;;;;;;;;23.00;21.33;;;;;;;;5029594;28;45480;-82
2022/11/14 09:01:05;;;;;;;;;25.67;23.33;;;;;;;;5033683;28;46365;-83
2022/11/14 09:03:31;;;;;;;;;30.33;24.00;;;;;;;;5046726;28;45504;-83
2022/11/14 09:05:56;;;;;;;;;25.67;22.67;;;;;;;;5066565;28;45699;-81
2022/11/14 09:08:22;;;;;;;;;30.00;22.67;;;;;;;;5054955;28;45856;-82
2022/11/14 09:10:48;;;;;;;;;21.33;21.00;;;;;;;;5041341;28;48170;-81
2022/11/14 09:13:14;;;;;;;;;24.33;24.33;;;;;;;;5030173;28;46313;-82
2022/11/14 09:15:44;;;;;;;;;28.67;23.00;;;;;;;;5031393;28;45740;-83
2022/11/14 09:18:14;;;;;;;;;26.00;20.00;;;;;;;;5051055;28;45756;-82
2022/11/14 09:20:39;;;;;;;;;25.00;20.00;;;;;;;;5050548;28;47910;-82
2022/11/14 09:23:05;;;;;;;;;28.00;23.00;;;;;;;;5049538;28;45840;-81
2022/11/14 09:25:30;;;;;;;;;20.33;20.33;;;;;;;;5036048;28;45715;-83
2022/11/14 09:27:56;;;;;;;;;25.33;21.67;;;;;;;;5027468;28;45886;-82
2022/11/14 09:30:22;;;;;;;;;29.67;23.67;;;;;;;;5048694;28;46836;-81
2022/11/14 09:32:48;;;;;;;;;27.33;21.67;;;;;;;;5054626;28;45558;-82
2022/11/14 09:35:13;;;;;;;;;14.67;12.00;;;;;;;;5038118;28;45524;-81
2022/11/14 09:37:38;;;;;;;;;27.33;21.33;;;;;;;;5058004;28;46533;-82
2022/11/14 09:40:06;;;;;;;;;23.67;19.33;;;;;;;;5042591;28;47015;-82
2022/11/14 09:42:43;;;;;;;;;25.33;24.00;;;;;;;;5037395;28;45804;-80
2022/11/14 09:45:13;;;;;;;;;21.33;20.67;;;;;;;;5047118;28;45885;-84
2022/11/14 09:47:43;;;;;;;;;26.33;22.00;;;;;;;;5046517;28;46048;-81
2022/11/14 09:50:21;;;;;;;;;25.00;22.67;;;;;;;;5046002;28;46385;-83
2022/11/14 09:52:55;;;;;;;;;21.67;21.00;;;;;;;;5059520;28;45642;-82
2022/11/14 09:55:22;;;;;;;;;23.00;19.67;;;;;;;;5035012;28;45917;-82
2022/11/14 09:57:49;;;;;;;;;21.33;21.33;;;;;;;;5061404;28;45570;-82
2022/11/14 10:00:15;;;;;;;;;22.00;21.00;;;;;;;;5039377;28;46626;-82
2022/11/14 10:02:59;;;;;;;;;23.33;16.33;;;;;;;;5050054;28;45761;-82
2022/11/14 10:05:43;;;;;;;;;20.00;18.00;;;;;;;;5054530;28;45489;-81
2022/11/14 10:08:27;;;;;;;;;24.33;19.00;;;;;;;;5044876;28;46175;-82
2022/11/14 10:10:55;;;;;;;;;23.67;21.00;;;;;;;;5026503;28;46399;-83
2022/11/14 10:13:29;;;;;;;;;21.67;19.00;;;;;;;;5038828;28;45167;-82
2022/11/14 10:16:09;;;;;;;;;24.00;21.33;;;;;;;;5055619;28;45809;-82
2022/11/14 10:18:50;;;;;;;;;22.33;18.00;;;;;;;;5026444;28;45697;-83
2022/11/14 10:21:28;;;;;;;;;27.00;21.67;;;;;;;;5037206;28;45717;-82
2022/11/14 10:24:22;;;;;;;;;27.33;19.67;;;;;;;;5030185;28;44690;-81
2022/11/14 10:26:53;;;;;;;;;19.67;18.00;;;;;;;;5056753;28;45541;-82
2022/11/14 10:29:33;;;;;;;;;26.33;19.67;;;;;;;;5052578;28;45516;-84
2022/11/14 10:32:01;;;;;;;;;22.33;19.00;;;;;;;;5044641;28;47596;-85
2022/11/14 10:34:35;;;;;;;;;23.33;20.33;;;;;;;;5051946;28;45956;-85
2022/11/14 10:37:19;;;;;;;;;21.33;18.00;;;;;;;;5059739;28;45331;-86
2022/11/14 10:39:52;;;;;;;;;21.67;19.67;;;;;;;;5063775;28;45330;-83
2022/11/14 10:42:28;;;;;;;;;29.33;22.67;;;;;;;;5045561;28;46124;-81
2022/11/14 10:44:59;;;;;;;;;27.00;22.00;;;;;;;;5033334;28;45384;-80
2022/11/14 10:47:27;;;;;;;;;23.00;20.33;;;;;;;;5048712;28;45398;-78
2022/11/14 10:49:54;;;;;;;;;24.00;21.33;;;;;;;;5044371;28;45470;-79
2022/11/14 10:52:23;;;;;;;;;22.33;17.33;;;;;;;;5045801;28;45414;-79
2022/11/14 10:54:54;;;;;;;;;28.33;23.67;;;;;;;;5042158;28;45604;-79
2022/11/14 10:57:20;;;;;;;;;25.33;21.67;;;;;;;;5040309;28;45430;-77
2022/11/14 10:59:46;;;;;;;;;24.67;21.33;;;;;;;;5042601;28;45711;-80
2022/11/14 11:02:12;;;;;;;;;25.33;21.00;;;;;;;;5049845;28;47025;-81
2022/11/14 11:04:38;;;;;;;;;25.00;22.67;;;;;;;;5023060;28;45833;-78
2022/11/14 11:07:06;;;;;;;;;21.00;18.67;;;;;;;;5032974;28;46514;-81
2022/11/14 11:12:18;;;;;;;;;20.67;17.00;;;;;;;;5051219;28;46573;-79
2022/11/14 11:14:44;;;;;;;;;25.33;22.00;;;;;;;;5040746;28;45492;-80
2022/11/14 11:17:10;;;;;;;;;19.00;13.33;;;;;;;;5050005;28;45744;-79
2022/11/14 11:19:36;;;;;;;;;25.00;24.00;;;;;;;;5048873;28;45380;-77
2022/11/14 11:22:21;;;;;;;;;33.33;27.33;;;;;;;;5056250;28;46282;-82
2022/11/14 11:24:51;;;;;;;;;33.33;25.00;;;;;;;;5069496;28;45213;-87
2022/11/14 11:27:36;;;;;;;;;31.00;25.33;;;;;;;;5051458;28;45434;-86
2022/11/14 11:30:16;;;;;;;;;28.67;22.33;;;;;;;;5043870;28;45230;-85
2022/11/14 11:32:41;;;;;;;;;34.00;25.00;;;;;;;;5061394;28;46083;-84
2022/11/14 11:35:10;;;;;;;;;28.67;23.67;;;;;;;;5058514;28;44769;-82
2022/11/14 11:37:40;;;;;;;;;31.00;26.00;;;;;;;;5058513;28;45402;-83
2022/11/14 11:40:11;;;;;;;;;25.00;21.67;;;;;;;;5057963;28;45413;-86
2022/11/14 11:42:43;;;;;;;;;24.00;22.00;;;;;;;;5059936;28;45599;-84
2022/11/14 11:45:16;;;;;;;;;23.67;23.33;;;;;;;;5050658;28;45431;-85
2022/11/14 11:47:43;;;;;;;;;31.00;27.33;;;;;;;;5072403;28;45159;-87
2022/11/14 11:50:14;;;;;;;;;25.00;23.00;;;;;;;;5043359;28;46696;-83
2022/11/14 11:52:44;;;;;;;;;29.67;22.33;;;;;;;;5051911;28;46125;-81
2022/11/14 11:55:10;;;;;;;;;35.67;27.67;;;;;;;;5059428;28;45421;-81
2022/11/14 11:57:42;;;;;;;;;26.00;24.67;;;;;;;;5053757;28;45634;-82
2022/11/14 12:00:19;;;;;;;;;28.67;22.00;;;;;;;;5045462;28;45387;-76
2022/11/14 12:02:45;;;;;;;;;21.67;20.67;;;;;;;;5054142;28;46083;-78
2022/11/14 12:05:24;;;;;;;;;26.00;23.33;;;;;;;;5054763;28;45947;-79
2022/11/14 12:07:57;;;;;;;;;31.67;25.33;;;;;;;;5051482;28;45301;-82
2022/11/14 12:10:26;;;;;;;;;19.00;17.00;;;;;;;;5031232;28;45748;-83
2022/11/14 12:12:54;;;;;;;;;25.67;23.00;;;;;;;;5037735;28;47271;-77
2022/11/14 12:15:28;;;;;;;;;29.00;23.67;;;;;;;;5032920;28;45746;-76
2022/11/14 12:18:03;;;;;;;;;27.00;25.67;;;;;;;;5050427;28;45578;-77
2022/11/14 12:20:51;;;;;;;;;27.00;24.00;;;;;;;;5050628;28;45928;-77
2022/11/14 12:23:35;;;;;;;;;28.00;25.67;;;;;;;;5044353;28;46722;-79
2022/11/14 12:26:01;;;;;;;;;26.67;22.00;;;;;;;;5048094;28;45569;-76
2022/11/14 12:28:42;;;;;;;;;26.33;23.00;;;;;;;;5056737;28;45804;-78
2022/11/14 12:31:11;;;;;;;;;26.67;24.33;;;;;;;;5054292;28;45576;-77
2022/11/14 12:33:39;;;;;;;;;24.67;22.33;;;;;;;;5050778;28;47037;-77
2022/11/14 12:36:07;;;;;;;;;29.67;27.33;;;;;;;;5052558;28;45497;-77
2022/11/14 12:38:51;;;;;;;;;25.33;21.67;;;;;;;;5036552;28;45384;-77
2022/11/14 12:41:23;;;;;;;;;27.33;25.33;;;;;;;;5053376;28;45458;-76
2022/11/14 12:43:48;;;;;;;;;25.67;22.33;;;;;;;;5034051;28;45649;-77
2022/11/14 12:46:13;;;;;;;;;31.67;27.00;;;;;;;;5041762;28;45329;-78
2022/11/14 12:48:43;;;;;;;;;23.33;23.00;;;;;;;;5043934;28;45366;-77
2022/11/14 12:51:23;;;;;;;;;27.50;24.00;;;;;;;;5036746;28;45569;-76
2022/11/14 12:53:49;;;;;;;;;33.00;27.33;;;;;;;;5045440;28;45483;-74
2022/11/14 12:56:25;;;;;;;;;29.00;25.33;;;;;;;;5033095;28;45422;-75
2022/11/14 12:58:59;;;;;;;;;33.00;26.33;;;;;;;;5024150;28;45681;-75
2022/11/14 13:01:25;;;;;;;;;24.00;23.00;;;;;;;;5043601;28;45751;-78
2022/11/14 13:04:09;;;;;;;;;23.00;22.67;;;;;;;;5036214;28;46210;-76
2022/11/14 13:06:44;;;;;;;;;27.00;25.67;;;;;;;;5042275;28;45473;-77
2022/11/14 13:09:28;;;;;;;;;25.67;23.67;;;;;;;;5041497;28;45737;-77
2022/11/14 13:23:28;;;;;;;;;28.00;26.33;;;;;;;;5035116;28;45782;-78
2022/11/14 13:26:19;;;;;;;;;24.00;24.00;;;;;;;;5050795;28;45540;-78
2022/11/14 13:28:46;;;;;;;;;30.67;25.33;;;;;;;;5012521;28;45696;-79
2022/11/14 13:31:14;;;;;;;;;24.33;22.00;;;;;;;;5048105;28;45722;-77
2022/11/14 13:33:41;;;;;;;;;27.67;23.67;;;;;;;;5032133;28;45921;-78
2022/11/14 13:36:08;;;;;;;;;25.67;21.00;;;;;;;;5031374;28;45846;-78
2022/11/14 13:38:36;;;;;;;;;24.33;23.33;;;;;;;;5039287;28;45838;-77
2022/11/14 13:41:17;;;;;;;;;22.67;19.67;;;;;;;;5052886;28;45401;-78
2022/11/14 13:43:42;;;;;;;;;27.33;24.33;;;;;;;;5045744;28;45520;-76
2022/11/14 13:46:16;;;;;;;;;29.67;26.33;;;;;;;;5036493;28;47266;-77
2022/11/14 13:48:57;;;;;;;;;25.67;24.67;;;;;;;;5035547;28;45942;-78
2022/11/14 13:51:24;;;;;;;;;28.00;25.00;;;;;;;;5021923;28;45807;-78
2022/11/14 13:53:50;;;;;;;;;25.67;23.33;;;;;;;;5023082;28;46179;-77
2022/11/14 13:56:24;;;;;;;;;28.00;22.33;;;;;;;;5041160;28;46063;-78
2022/11/14 13:58:50;;;;;;;;;24.33;21.00;;;;;;;;5051154;28;45502;-77
2022/11/14 14:01:27;;;;;;;;;21.33;18.33;;;;;;;;5048395;28;45412;-79
2022/11/14 14:04:01;;;;;;;;;24.67;23.00;;;;;;;;5046671;28;45796;-78
2022/11/14 14:06:45;;;;;;;;;19.00;18.00;;;;;;;;5055490;28;46241;-79
2022/11/14 14:09:22;;;;;;;;;24.00;20.00;;;;;;;;5050590;28;45394;-79
2022/11/14 14:12:02;;;;;;;;;23.00;19.00;;;;;;;;5031829;28;45807;-78
2022/11/14 14:14:36;;;;;;;;;23.33;23.00;;;;;;;;5050787;28;45729;-78
2022/11/14 14:17:04;;;;;;;;;22.00;21.33;;;;;;;;5050446;28;45786;-78
2022/11/14 14:19:32;;;;;;;;;30.67;25.33;;;;;;;;5034683;28;47586;-79
2022/11/14 14:22:16;;;;;;;;;19.33;19.00;;;;;;;;5036281;28;45538;-78
2022/11/14 14:24:44;;;;;;;;;30.00;24.33;;;;;;;;5044735;28;45784;-77
2022/11/14 14:27:22;;;;;;;;;31.00;25.00;;;;;;;;5054525;28;45688;-78
2022/11/14 14:30:06;;;;;;;;;22.00;20.33;;;;;;;;5058844;28;45769;-79
2022/11/14 14:32:32;;;;;;;;;26.33;21.33;;;;;;;;5036488;28;45660;-78
2022/11/14 14:34:59;;;;;;;;;20.67;20.67;;;;;;;;5054733;28;45693;-81
2022/11/14 14:37:28;;;;;;;;;26.67;25.00;;;;;;;;5048459;28;45854;-82
2022/11/14 14:39:56;;;;;;;;;26.67;24.00;;;;;;;;5053780;28;45347;-81